Time;durP1;ratioP1;P1;durP2;ratioP2;P2;SDS_P1;SDS_P2;PMS_P1;PMS_P2;Temp;Humidity;BMP_temperature;BMP_pressure;BME280_temperature;BME280_humidity;BME280_pressure;Samples;Min_cycle;Max_cycle;Signal;HPM_P1;HPM_P2
2021/10/28 00:13:40;;;;;;;10.00;5.00;;;;;;;9.04;77.06;100995.19;8600980;33;20541;-76
2021/10/28 00:18:45;;;;;;;11.32;5.70;;;;;;;9.00;77.44;100989.19;8577243;33;20379;-76
2021/10/28 00:23:50;;;;;;;6.53;5.07;;;;;;;9.01;77.02;100990.88;8596518;33;20451;-75
2021/10/28 00:28:59;;;;;;;10.75;5.38;;;;;;;8.97;77.06;100996.56;8601215;33;20427;-75
2021/10/28 00:34:02;;;;;;;9.40;4.97;;;;;;;8.83;77.03;100992.06;8587295;33;20140;-75
2021/10/28 00:39:07;;;;;;;7.57;4.80;;;;;;;8.70;77.37;100983.97;8586305;33;20420;-75
2021/10/28 00:44:12;;;;;;;9.23;5.55;;;;;;;8.64;77.43;100986.16;8585132;33;20463;-75
2021/10/28 00:49:15;;;;;;;7.95;5.93;;;;;;;8.54;77.42;100977.88;8585344;33;20259;-75
2021/10/28 00:54:21;;;;;;;7.60;5.50;;;;;;;8.50;77.65;100976.31;8585082;33;20201;-75
2021/10/28 00:59:26;;;;;;;9.73;6.75;;;;;;;8.49;77.73;100977.28;8585383;33;20143;-75
2021/10/28 01:04:31;;;;;;;10.30;6.57;;;;;;;8.44;78.00;100982.03;8590335;33;20223;-75
2021/10/28 01:09:34;;;;;;;10.77;6.53;;;;;;;8.41;77.88;100985.78;8599285;33;20155;-75
2021/10/28 01:14:44;;;;;;;11.63;7.65;;;;;;;8.39;78.16;100985.00;8601665;33;20433;-76
2021/10/28 01:19:51;;;;;;;11.75;6.95;;;;;;;8.38;78.34;100983.28;8606930;33;20663;-76
2021/10/28 01:24:54;;;;;;;11.13;7.18;;;;;;;8.38;78.33;100983.28;8606782;33;20548;-75
2021/10/28 01:29:57;;;;;;;12.57;7.57;;;;;;;8.37;78.52;100981.56;8610192;33;20413;-76
2021/10/28 01:35:02;;;;;;;11.23;7.28;;;;;;;8.34;78.36;100984.44;8607347;33;20423;-75
2021/10/28 01:40:07;;;;;;;10.35;7.22;;;;;;;8.31;78.43;100977.47;8599551;33;20140;-76
2021/10/28 01:45:10;;;;;;;12.57;7.03;;;;;;;8.28;78.29;100977.66;8602282;33;20179;-75
2021/10/28 01:50:14;;;;;;;14.00;8.18;;;;;;;8.20;78.39;100971.03;8598090;33;20151;-76
2021/10/28 01:55:18;;;;;;;11.95;7.53;;;;;;;8.09;78.82;100969.91;8591138;33;21126;-76
2021/10/28 02:00:24;;;;;;;13.38;8.00;;;;;;;8.06;78.69;100961.19;8584898;33;20380;-76
2021/10/28 02:05:29;;;;;;;15.27;8.57;;;;;;;8.00;78.40;100961.56;8594162;33;20144;-76
2021/10/28 02:10:32;;;;;;;15.32;8.50;;;;;;;7.94;78.86;100966.31;8584664;33;20140;-76
2021/10/28 02:15:35;;;;;;;20.45;11.00;;;;;;;7.81;79.67;100961.81;8582835;33;20428;-76
2021/10/28 02:20:43;;;;;;;20.60;11.75;;;;;;;7.66;80.75;100960.94;8581025;33;20998;-75
2021/10/28 02:25:46;;;;;;;24.80;13.38;;;;;;;7.64;80.70;100962.84;8580452;33;20223;-76
2021/10/28 02:30:49;;;;;;;20.00;12.02;;;;;;;7.65;80.66;100965.44;8581098;33;20178;-76
2021/10/28 02:35:53;;;;;;;27.73;12.98;;;;;;;7.62;80.83;100952.22;8583400;33;20187;-77
2021/10/28 02:40:56;;;;;;;24.45;14.02;;;;;;;7.62;80.61;100954.88;8598229;33;20540;-76
2021/10/28 02:45:59;;;;;;;23.88;14.00;;;;;;;7.55;81.04;100952.69;8595851;33;20411;-76
2021/10/28 02:51:04;;;;;;;25.10;14.93;;;;;;;7.52;80.86;100939.50;8592068;33;20432;-76
2021/10/28 02:56:07;;;;;;;25.40;14.02;;;;;;;7.46;80.92;100925.56;8580071;33;20718;-76
2021/10/28 03:01:10;;;;;;;25.42;13.25;;;;;;;7.42;80.98;100933.84;8579136;33;20156;-76
2021/10/28 03:06:15;;;;;;;31.52;16.30;;;;;;;7.35;81.24;100929.78;8581132;33;20443;-76
2021/10/28 03:11:18;;;;;;;29.08;14.57;;;;;;;7.34;81.33;100923.59;8583943;33;20234;-75
2021/10/28 03:16:28;;;;;;;30.48;15.55;;;;;;;7.35;81.72;100924.44;8584145;33;20445;-76
2021/10/28 03:26:53;;;;;;;29.45;15.70;;;;;;;7.25;81.68;100922.31;8558656;33;21158;-76
2021/10/28 03:31:56;;;;;;;29.67;15.98;;;;;;;7.19;81.76;100911.16;8583179;33;20518;-75
2021/10/28 03:37:04;;;;;;;28.88;15.23;;;;;;;7.15;81.64;100913.13;8584519;33;20965;-76
2021/10/28 03:58:44;;;;;;;32.65;16.13;;;;;;;6.96;82.34;100897.28;8576784;33;20654;-76
2021/10/28 04:31:12;;;;;;;34.50;16.23;;;;;;;6.86;82.48;100890.75;8776535;33;20144;-76
2021/10/28 04:36:15;;;;;;;30.48;16.33;;;;;;;6.85;82.32;100887.19;8776980;33;20258;-75
2021/10/28 04:41:19;;;;;;;35.58;16.90;;;;;;;6.88;82.36;100877.31;8776908;33;20471;-76
2021/10/28 04:46:22;;;;;;;30.25;16.42;;;;;;;6.81;82.10;100874.13;8776355;33;20235;-75
2021/10/28 04:51:26;;;;;;;35.83;18.25;;;;;;;6.78;82.55;100877.84;8776654;33;20234;-75
2021/10/28 04:56:30;;;;;;;31.67;16.60;;;;;;;6.76;82.71;100873.53;8776296;33;20183;-75
2021/10/28 05:01:34;;;;;;;30.27;17.30;;;;;;;6.79;82.67;100866.19;8776325;33;20244;-75
2021/10/28 05:06:37;;;;;;;32.03;16.58;;;;;;;6.78;82.79;100858.28;8776060;33;20339;-75
2021/10/28 05:11:42;;;;;;;32.03;17.92;;;;;;;6.80;82.70;100857.25;8776455;33;20553;-76
2021/10/28 05:16:45;;;;;;;37.88;18.25;;;;;;;6.74;82.87;100859.41;8774696;33;20179;-75
2021/10/28 05:21:48;;;;;;;30.50;17.00;;;;;;;6.68;82.81;100865.94;8775726;33;20140;-75
2021/10/28 05:26:52;;;;;;;29.52;17.15;;;;;;;6.66;82.97;100865.16;8775952;33;20245;-75
2021/10/28 05:31:55;;;;;;;35.10;16.67;;;;;;;6.68;82.77;100859.75;8776465;33;20170;-76
2021/10/28 05:36:58;;;;;;;30.55;17.40;;;;;;;6.64;83.06;100859.09;8719384;33;20467;-75
2021/10/28 05:42:03;;;;;;;34.75;18.15;;;;;;;6.67;82.99;100853.56;8700073;33;20545;-76
2021/10/28 05:47:06;;;;;;;33.90;16.92;;;;;;;6.57;83.48;100861.22;8697570;33;20180;-75
2021/10/28 05:52:09;;;;;;;33.92;18.40;;;;;;;6.59;83.44;100859.34;8697932;33;20152;-75
2021/10/28 05:57:14;;;;;;;33.28;17.63;;;;;;;6.57;83.55;100850.53;8697210;33;20186;-75
2021/10/28 06:02:18;;;;;;;32.90;17.30;;;;;;;6.58;83.42;100854.06;8697961;33;20310;-76
2021/10/28 06:07:21;;;;;;;37.13;19.25;;;;;;;6.57;83.35;100853.22;8696074;33;20153;-75
2021/10/28 06:12:27;;;;;;;37.08;18.65;;;;;;;6.63;83.53;100852.00;8697576;33;20177;-75
2021/10/28 06:17:33;;;;;;;37.17;18.75;;;;;;;6.57;83.66;100842.53;8695861;33;20539;-76
2021/10/28 06:22:36;;;;;;;34.67;17.88;;;;;;;6.70;83.38;100847.19;8697190;33;20149;-75
2021/10/28 06:27:40;;;;;;;32.45;19.20;;;;;;;6.68;83.36;100847.25;8696582;33;20148;-76
2021/10/28 06:32:47;;;;;;;35.15;18.33;;;;;;;6.70;83.19;100852.53;8696964;33;20230;-76
2021/10/28 06:37:50;;;;;;;36.00;18.20;;;;;;;6.79;83.06;100844.81;8696332;33;20219;-75
2021/10/28 06:42:55;;;;;;;42.13;19.30;;;;;;;6.98;82.81;100833.13;8696618;33;20214;-76
2021/10/28 06:47:58;;;;;;;38.25;19.77;;;;;;;7.14;82.33;100841.09;8695590;33;20219;-76
2021/10/28 06:53:09;;;;;;;38.33;20.02;;;;;;;7.43;81.43;100840.22;8696346;33;21048;-76
2021/10/28 07:03:34;;;;;;;34.10;17.70;;;;;;;8.09;79.13;100836.09;8696147;33;20664;-75
2021/10/28 07:08:39;;;;;;;36.58;18.40;;;;;;;8.44;77.52;100843.66;8696127;33;20230;-76
2021/10/28 07:13:47;;;;;;;32.58;17.95;;;;;;;8.75;76.64;100836.34;8695861;33;20228;-76
2021/10/28 07:18:55;;;;;;;33.47;17.52;;;;;;;9.03;75.55;100832.69;8695736;33;20243;-75
2021/10/28 08:23:30;;;;;;;25.02;14.50;;;;;;;11.19;69.02;100781.31;8635755;33;20134;-77
2021/10/28 08:28:45;;;;;;;24.73;12.85;;;;;;;11.50;68.04;100775.28;8637168;33;20141;-77
2021/10/28 08:33:48;;;;;;;25.35;14.48;;;;;;;12.14;67.57;100785.41;8636957;33;20153;-77
2021/10/28 08:38:53;;;;;;;23.20;13.45;;;;;;;12.11;66.00;100777.56;8639482;33;20281;-77
2021/10/28 08:43:57;;;;;;;21.33;12.18;;;;;;;12.46;65.22;100779.25;8636705;34;20672;-77
2021/10/28 08:49:03;;;;;;;20.27;11.98;;;;;;;12.37;64.79;100786.25;8636783;33;20421;-77
2021/10/28 08:54:32;;;;;;;21.35;13.27;;;;;;;12.57;64.97;100789.13;8636271;34;20315;-77
2021/10/28 09:00:06;;;;;;;25.08;13.02;;;;;;;13.08;63.91;100774.94;8635754;33;20224;-77
2021/10/28 09:27:12;;;;;;;18.42;11.68;;;;;;;15.08;58.30;100749.81;8641688;34;21169;-77
2021/10/28 09:32:26;;;;;;;19.90;11.80;;;;;;;15.00;59.11;100741.56;8641451;34;20671;-77
2021/10/28 09:48:35;;;;;;;18.23;11.48;;;;;;;15.01;58.84;100738.72;8641430;33;20156;-76
2021/10/28 09:54:00;;;;;;;17.25;10.23;;;;;;;15.74;58.36;100721.84;8640731;34;20244;-77
2021/10/28 09:59:07;;;;;;;16.67;10.63;;;;;;;16.64;55.83;100703.88;8643104;34;20280;-77
2021/10/28 10:04:10;;;;;;;15.18;8.90;;;;;;;17.68;53.45;100712.06;8642169;33;20289;-77
2021/10/28 10:09:14;;;;;;;12.52;8.70;;;;;;;17.46;51.66;100716.19;8641351;33;20213;-77
2021/10/28 10:14:20;;;;;;;13.00;8.68;;;;;;;17.83;52.30;100698.72;8641046;33;20656;-77
2021/10/28 10:19:33;;;;;;;12.50;7.55;;;;;;;17.80;50.26;100696.34;8641572;33;20475;-77
2021/10/28 10:24:46;;;;;;;11.68;8.23;;;;;;;17.78;50.32;100683.91;8641996;33;20697;-77
2021/10/28 12:27:50;;;;;;;3.95;1.80;;;;;;;22.36;33.86;100547.31;8579836;33;20985;-77
2021/10/28 13:03:56;;;;;;;4.50;1.65;;;;;;;21.84;33.88;100472.81;8587822;33;20278;-77
2021/10/28 13:36:15;;;;;;;2.58;1.60;;;;;;;21.60;34.62;100434.91;8585623;33;20316;-75
2021/10/28 13:52:12;;;;;;;1.67;1.57;;;;;;;22.14;34.99;100417.94;8571197;33;20704;-77
2021/10/28 13:57:30;;;;;;;2.78;2.08;;;;;;;21.65;35.46;100413.31;8583610;33;20543;-75
2021/10/28 15:02:21;;;;;;;5.80;2.67;;;;;;;19.20;42.13;100351.56;8700172;33;20138;-75
2021/10/28 15:28:56;;;;;;;3.63;2.63;;;;;;;16.40;45.97;100321.41;8699759;33;20533;-76
2021/10/28 15:34:26;;;;;;;3.40;2.67;;;;;;;16.02;46.88;100324.44;8696355;33;20390;-76
2021/10/28 15:39:37;;;;;;;4.30;2.78;;;;;;;15.20;47.90;100304.06;8695257;33;20839;-76
2021/10/28 16:22:05;;;;;;;3.25;2.83;;;;;;;13.37;53.20;100292.19;8669231;33;20520;-76
2021/10/28 16:27:11;;;;;;;4.30;3.15;;;;;;;13.31;52.91;100295.44;8689640;33;20138;-75
2021/10/28 16:32:14;;;;;;;4.82;3.70;;;;;;;13.13;53.58;100292.63;8690099;33;20126;-75
2021/10/28 16:37:18;;;;;;;5.53;4.13;;;;;;;13.02;54.18;100285.53;8694097;33;20563;-75
2021/10/28 16:42:23;;;;;;;6.10;3.67;;;;;;;12.94;54.09;100296.16;8701813;33;20402;-75
2021/10/28 16:47:31;;;;;;;6.57;4.05;;;;;;;12.80;54.52;100297.44;8714644;33;20522;-76
2021/10/28 16:52:34;;;;;;;4.05;3.65;;;;;;;12.85;54.58;100291.66;8624279;33;20145;-76
2021/10/28 16:57:39;;;;;;;5.32;3.75;;;;;;;12.75;55.01;100298.88;8591499;33;20148;-76
2021/10/28 17:02:42;;;;;;;3.95;3.42;;;;;;;12.68;55.37;100303.13;8582083;33;20147;-75
2021/10/28 17:07:46;;;;;;;6.00;4.22;;;;;;;12.58;55.90;100295.88;8578146;33;20147;-76
2021/10/28 17:12:50;;;;;;;7.88;4.05;;;;;;;12.56;55.91;100297.00;8576322;33;20137;-75
2021/10/28 17:17:53;;;;;;;6.10;4.45;;;;;;;12.54;56.68;100293.59;8574140;33;20864;-76
2021/10/28 17:22:56;;;;;;;8.05;5.22;;;;;;;12.30;57.10;100302.91;8573890;33;20959;-76
2021/10/28 17:28:01;;;;;;;6.13;5.30;;;;;;;12.23;57.68;100298.16;8549985;33;20145;-76
2021/10/28 17:33:05;;;;;;;7.15;5.25;;;;;;;12.07;58.35;100301.41;8549345;33;20497;-75
2021/10/28 17:38:08;;;;;;;7.68;5.43;;;;;;;11.87;58.67;100297.75;8577981;33;20407;-76
2021/10/28 17:43:14;;;;;;;8.10;5.80;;;;;;;11.80;58.87;100305.53;8580306;33;20543;-76
2021/10/28 17:48:17;;;;;;;9.73;5.38;;;;;;;11.71;59.03;100300.91;8580774;33;20238;-75
2021/10/28 17:53:20;;;;;;;6.85;5.18;;;;;;;11.67;59.08;100299.50;8583542;33;20557;-75
2021/10/28 17:58:25;;;;;;;8.77;6.05;;;;;;;11.60;58.99;100301.88;8559835;33;20425;-76
2021/10/28 18:03:28;;;;;;;13.20;7.93;;;;;;;11.49;59.16;100299.25;8584630;33;20428;-76
2021/10/28 18:08:32;;;;;;;10.68;6.30;;;;;;;11.41;59.57;100296.38;8585405;33;20437;-76
2021/10/28 18:13:36;;;;;;;8.13;6.25;;;;;;;11.19;60.06;100292.84;8582198;33;20133;-77
2021/10/28 18:18:39;;;;;;;9.75;6.57;;;;;;;10.92;61.45;100300.53;8574263;33;20428;-76
2021/10/28 18:23:48;;;;;;;8.63;6.82;;;;;;;10.71;63.31;100295.09;8573372;33;20516;-76
2021/10/28 18:28:55;;;;;;;9.57;6.80;;;;;;;10.55;63.98;100293.66;8571995;33;20535;-77
2021/10/28 18:33:59;;;;;;;9.45;6.90;;;;;;;10.47;63.92;100296.13;8570487;33;20416;-75
2021/10/28 18:39:05;;;;;;;9.52;6.78;;;;;;;10.29;63.98;100297.66;8571023;33;20532;-75
2021/10/28 18:44:10;;;;;;;8.55;6.95;;;;;;;10.09;64.70;100301.94;8571761;33;20402;-75
2021/10/28 18:49:13;;;;;;;11.45;7.88;;;;;;;9.79;65.49;100298.03;8551028;33;20616;-75
2021/10/28 18:54:17;;;;;;;13.27;8.00;;;;;;;9.71;66.50;100284.38;8573316;33;21009;-74
2021/10/28 18:59:23;;;;;;;16.25;9.13;;;;;;;9.71;65.79;100295.94;8572273;33;20542;-75
2021/10/28 19:04:26;;;;;;;15.13;8.48;;;;;;;9.72;65.46;100297.63;8572037;33;20663;-75
2021/10/28 19:09:29;;;;;;;12.48;8.23;;;;;;;9.68;65.39;100287.25;8575284;33;20140;-75
2021/10/28 19:14:35;;;;;;;13.45;8.48;;;;;;;9.65;64.31;100306.28;8551939;33;20637;-75
2021/10/28 19:19:39;;;;;;;15.68;8.85;;;;;;;9.55;64.27;100300.81;8577218;33;20246;-76
2021/10/28 19:24:42;;;;;;;16.38;9.65;;;;;;;9.36;64.38;100300.53;8578838;33;20189;-74
2021/10/28 19:29:52;;;;;;;16.40;9.77;;;;;;;9.37;63.93;100302.22;8554529;33;20785;-75
2021/10/28 19:34:56;;;;;;;18.23;11.48;;;;;;;9.26;64.14;100311.94;8589684;33;20535;-74
2021/10/28 19:50:41;;;;;;;22.90;12.55;;;;;;;8.95;64.97;100301.84;8532871;33;20167;-77
2021/10/28 19:55:44;;;;;;;23.90;13.23;;;;;;;8.96;65.04;100304.41;8572278;33;20620;-75
2021/10/28 20:00:53;;;;;;;23.52;12.85;;;;;;;8.93;65.04;100291.25;8575960;33;20513;-75
2021/10/28 20:06:10;;;;;;;21.80;13.27;;;;;;;8.86;65.36;100287.34;8578624;33;20140;-75
2021/10/28 20:21:56;;;;;;;24.23;13.32;;;;;;;8.47;67.41;100289.31;8602527;27;20193;-75
2021/10/28 20:27:00;;;;;;;28.42;15.43;;;;;;;8.28;68.15;100273.75;8581472;33;20151;-75
2021/10/28 20:32:05;;;;;;;30.77;16.80;;;;;;;7.94;69.72;100278.00;8599043;33;20251;-74
2021/10/28 20:37:08;;;;;;;33.25;18.75;;;;;;;7.71;70.67;100275.16;8597298;33;20194;-75
2021/10/28 20:42:15;;;;;;;35.97;18.10;;;;;;;7.54;71.00;100269.28;8597350;33;20443;-75
2021/10/28 20:47:21;;;;;;;42.92;20.77;;;;;;;7.49;71.47;100277.63;8597394;33;20427;-75
2021/10/28 20:52:24;;;;;;;36.10;18.58;;;;;;;7.41;71.89;100275.50;8584598;33;20183;-74
2021/10/28 20:57:27;;;;;;;38.00;18.98;;;;;;;7.38;72.05;100278.38;8582961;33;20588;-75
2021/10/28 21:02:32;;;;;;;38.00;19.95;;;;;;;7.15;72.71;100271.09;8582453;33;20426;-75
2021/10/28 21:07:35;;;;;;;38.72;19.98;;;;;;;7.07;73.29;100274.28;8592581;33;20541;-75
2021/10/28 21:12:39;;;;;;;35.30;18.80;;;;;;;7.01;73.25;100272.88;8602049;33;20431;-75
2021/10/28 21:17:44;;;;;;;36.75;18.23;;;;;;;6.91;73.72;100277.16;8577125;33;20533;-75
2021/10/28 21:22:47;;;;;;;36.05;18.92;;;;;;;6.99;73.28;100274.81;8594534;33;20227;-75
2021/10/28 21:27:50;;;;;;;38.05;20.30;;;;;;;6.88;73.86;100271.13;8605870;33;21028;-75
2021/10/28 21:33:16;;;;;;;34.40;19.02;;;;;;;6.81;73.72;100268.84;8606706;33;21088;-76
2021/10/28 21:38:19;;;;;;;34.50;17.25;;;;;;;6.67;74.30;100263.59;8606850;33;20148;-76
2021/10/28 21:43:23;;;;;;;32.60;17.92;;;;;;;6.52;75.19;100257.44;8605940;33;20407;-76
2021/10/28 21:48:27;;;;;;;36.33;18.85;;;;;;;6.62;74.58;100255.88;8601773;33;20171;-76
2021/10/28 21:53:35;;;;;;;36.47;17.60;;;;;;;6.63;74.50;100246.91;8601911;33;20762;-76
2021/10/28 21:58:46;;;;;;;32.67;16.98;;;;;;;6.59;74.62;100248.06;8604197;33;20148;-76
2021/10/28 22:25:21;;;;;;;33.63;18.10;;;;;;;6.51;74.99;100236.22;8589986;33;21221;-76
2021/10/28 22:30:25;;;;;;;29.52;16.13;;;;;;;6.52;74.75;100233.41;8584875;33;20417;-76
2021/10/28 22:35:35;;;;;;;32.38;16.23;;;;;;;6.52;74.82;100214.75;8583542;33;20450;-75
2021/10/28 22:40:41;;;;;;;35.00;16.52;;;;;;;6.28;75.76;100198.56;8585259;33;20144;-76
2021/10/28 22:45:45;;;;;;;31.65;16.02;;;;;;;6.39;75.57;100200.53;8580480;33;21031;-75
2021/10/28 22:50:50;;;;;;;31.42;16.38;;;;;;;6.35;75.54;100197.19;8583163;33;20424;-76
2021/10/28 22:55:54;;;;;;;29.52;15.25;;;;;;;6.37;75.45;100187.28;8584406;33;20418;-76
2021/10/28 23:01:03;;;;;;;28.15;14.57;;;;;;;6.40;75.48;100178.22;8583105;33;20176;-74
2021/10/28 23:06:37;;;;;;;32.75;15.48;;;;;;;6.26;76.10;100173.81;8565842;33;20559;-74
2021/10/28 23:22:28;;;;;;;34.90;16.35;;;;;;;6.24;76.12;100178.38;8548915;33;20509;-76
2021/10/28 23:27:31;;;;;;;30.48;15.40;;;;;;;6.27;76.27;100166.66;8581202;33;20609;-75
2021/10/28 23:32:34;;;;;;;36.47;16.40;;;;;;;6.36;75.97;100174.91;8578744;33;20210;-76
2021/10/28 23:37:38;;;;;;;32.63;16.00;;;;;;;6.21;76.47;100167.91;8554399;33;20180;-76
2021/10/28 23:42:41;;;;;;;31.52;15.02;;;;;;;6.21;76.31;100181.25;8578912;33;20456;-75
2021/10/28 23:47:44;;;;;;;29.90;15.93;;;;;;;6.31;76.02;100174.34;8580419;33;21116;-76
2021/10/28 23:52:49;;;;;;;32.58;15.57;;;;;;;6.23;76.79;100167.81;8580954;33;20726;-75
2021/10/28 23:57:52;;;;;;;37.40;16.45;;;;;;;6.36;76.34;100182.03;8579862;33;20252;-75
